Aviation Digital Data Service (ADDS)

Output produced by METARs form (1157 UTC 26 March 2019)
found at http://www.aviationweather.gov/metar/data/
 
UTAA 261100Z 34004KT 280V050 9999 FEW019CB OVC019 11/09 Q1016 R88/290055 NOSIG
TAF UTAA 261055Z 2612/2712 04014KT 5000 -RA OVC007 SCT020CB 530009 
     TEMPO 2612/2616 34012G22KT 3000 -SHRA BKN005 
     TEMPO 2617/2704 03012KT 1500 -RA BR BKN003
       
UTAT 261100Z 31012KT 9999 OVC011 09/06 Q1015 R26/CLRD70 NOSIG
TAF UTAT 261044Z 2612/2712 36012G22KT 6000 SCT030CB OVC030 530005 
     TEMPO 2618/2624 30012G22KT 3000 -SHRA BR OVC005
       
UTAM 261100Z 32012KT 9999 OVC008 13/11 Q1015 NOSIG
TAF UTAM 261035Z 2612/2712 33018KT 3000 -RA OVC007 SCT020CB 530009 
     TEMPO 2612/2618 29016G26KT 1200 RA BR OVC005 
     TEMPO 2618/2704 31016KT 1200 RA BR OVC004 
     BECMG 2704/2705 35016KT 4000 -RA BKN010 
     TEMPO 2705/2712 VRB26KT 2000 TSRA BKN008 570005
       
UTAV 261100Z 29010KT 9999 -SHRA SCT033CB OVC033 16/15 Q1012 NOSIG
TAF UTAV 261030Z 2612/2712 32014KT 5000 -RA BKN010 SCT020CB 530003 
     TEMPO 2612/2618 26014G24KT 1200 BR RA OVC003 
     PROB40 
     TEMPO 2612/2618 VRB30KT TSRA
       
UTAK 261100Z 02008KT 9999 SCT032 OVC100 11/02 Q1016 R34L/CLRD70 NOSIG
TAF UTAK 261030Z 2612/2712 06016KT 9999 BKN020 BKN100 530008 
     TEMPO 2612/2616 13016KT BKN010 SCT033CB 
     BECMG 2616/2618 4000 -RA BR BKN007 SCT026CB OVC100 
     TEMPO 2620/2704 1500 BR BKN001 
     BECMG 2704/2705 27018KT 6000 -RA BKN013 SCT026CB BKN100 
     TEMPO 2705/2710 20018KT 3000 BR BKN004